createdAt,value
2024-03-10T00:00:16.332Z,62.93
2024-03-10T00:02:47.947Z,63.61
2024-03-10T00:05:16.325Z,63.59
2024-03-10T00:07:45.240Z,63.30
2024-03-10T00:10:19.992Z,66.11
2024-03-10T00:12:49.847Z,68.48
2024-03-10T00:15:18.332Z,69.12
2024-03-10T00:17:46.135Z,67.45
2024-03-10T00:20:14.455Z,67.92
2024-03-10T00:22:42.554Z,66.19
2024-03-10T00:32:46.053Z,63.12
2024-03-10T00:35:13.639Z,63.54
2024-03-10T00:45:18.675Z,65.34
2024-03-10T00:47:46.704Z,65.93
2024-03-10T00:50:14.579Z,66.38
2024-03-10T01:00:21.729Z,64.01
2024-03-10T01:02:50.857Z,64.04
2024-03-10T01:05:19.260Z,64.29
2024-03-10T01:07:47.046Z,63.97
2024-03-10T01:10:15.368Z,64.02
2024-03-10T01:12:42.803Z,63.94
2024-03-10T01:22:46.764Z,65.52
2024-03-10T01:25:14.438Z,66.28
2024-03-10T01:27:41.884Z,66.88
2024-03-10T01:30:11.097Z,66.77
2024-03-10T01:32:38.580Z,67.57
2024-03-10T01:35:31.032Z,65.50
2024-03-10T01:37:58.572Z,63.67
2024-03-10T01:40:25.992Z,63.47
2024-03-10T01:42:56.888Z,63.50
2024-03-10T01:45:24.390Z,64.14
2024-03-10T01:55:38.683Z,65.73
2024-03-10T01:58:07.069Z,65.99
2024-03-10T02:00:39.756Z,65.95
2024-03-10T02:03:07.715Z,66.66
2024-03-10T02:05:35.331Z,66.62
2024-03-10T02:08:02.884Z,67.95
2024-03-10T02:10:30.801Z,68.66
2024-03-10T02:12:58.253Z,66.38
2024-03-10T02:15:26.017Z,64.67
2024-03-10T02:17:53.494Z,63.88
2024-03-10T02:20:23.885Z,63.21
2024-03-10T02:22:52.560Z,63.65
2024-03-10T02:25:24.239Z,64.02
2024-03-10T02:27:54.060Z,63.76
2024-03-10T02:30:31.372Z,64.30
2024-03-10T02:33:18.014Z,64.89
2024-03-10T02:36:20.850Z,65.18
2024-03-10T02:39:07.161Z,64.93
2024-03-10T02:41:53.345Z,65.60
2024-03-10T02:44:39.727Z,66.53
2024-03-10T02:47:17.545Z,67.08
2024-03-10T02:49:45.142Z,68.05
2024-03-10T02:52:14.149Z,66.73
2024-03-10T02:54:42.067Z,65.26
2024-03-10T02:57:09.509Z,64.65
2024-03-10T02:59:36.983Z,64.58
2024-03-10T03:02:04.715Z,64.63
2024-03-10T03:04:32.487Z,64.80
2024-03-10T03:06:59.948Z,65.51
2024-03-10T03:16:46.642Z,66.95
2024-03-10T03:26:54.463Z,69.32
2024-03-10T03:29:22.125Z,71.41
2024-03-10T03:31:49.691Z,70.56
2024-03-10T03:34:18.149Z,67.98
2024-03-10T03:36:45.609Z,65.20
2024-03-10T03:39:14.904Z,64.45
2024-03-10T03:42:09.925Z,64.71
2024-03-10T03:49:25.411Z,65.70
2024-03-10T03:51:52.898Z,65.94
2024-03-10T04:00:59.010Z,68.51
2024-03-10T04:03:26.433Z,68.58
2024-03-10T04:05:54.246Z,68.99
2024-03-10T04:08:23.072Z,68.84
2024-03-10T04:10:52.185Z,69.41
2024-03-10T04:21:36.381Z,65.75
2024-03-10T04:24:05.222Z,65.64
2024-03-10T04:26:32.451Z,66.51
2024-03-10T04:28:59.282Z,66.58
2024-03-10T04:31:26.035Z,66.24
2024-03-10T04:34:01.770Z,66.56
2024-03-10T04:40:56.998Z,67.65
2024-03-10T04:43:24.041Z,68.36
2024-03-10T04:45:53.881Z,68.80
2024-03-10T04:48:21.112Z,69.90
2024-03-10T04:50:48.966Z,70.20
2024-03-10T04:53:16.388Z,68.04
2024-03-10T04:55:44.836Z,66.35
2024-03-10T04:58:11.684Z,65.63
2024-03-10T05:00:39.023Z,65.45
2024-03-10T05:03:06.760Z,65.81
2024-03-10T05:05:33.345Z,65.75
2024-03-10T05:08:00.721Z,66.64
2024-03-10T05:10:27.522Z,66.74
2024-03-10T05:12:54.104Z,67.18
2024-03-10T05:15:21.687Z,67.28
2024-03-10T05:17:48.470Z,67.52
2024-03-10T05:20:15.936Z,67.09
2024-03-10T05:22:42.851Z,68.06
2024-03-10T05:25:11.309Z,68.67
2024-03-10T05:27:42.039Z,66.08
2024-03-10T05:30:10.230Z,63.87
2024-03-10T05:32:37.185Z,62.35
2024-03-10T05:35:06.258Z,62.18
2024-03-10T05:37:33.406Z,62.22
2024-03-10T05:40:00.197Z,62.22
2024-03-10T05:42:27.001Z,62.52
2024-03-10T05:44:53.750Z,62.96
2024-03-10T05:47:51.131Z,63.12
2024-03-10T05:50:39.532Z,63.09
2024-03-10T05:53:06.521Z,62.97
2024-03-10T05:55:33.630Z,63.75
2024-03-10T05:58:00.802Z,64.46
2024-03-10T06:00:27.624Z,64.67
2024-03-10T06:02:54.402Z,64.99
2024-03-10T06:05:21.947Z,64.99
2024-03-10T06:07:48.794Z,62.55
2024-03-10T06:10:15.673Z,61.41
2024-03-10T06:12:43.273Z,60.76
2024-03-10T06:15:11.902Z,61.24
2024-03-10T06:17:41.373Z,61.56
2024-03-10T06:20:27.152Z,61.90
2024-03-10T06:23:13.395Z,61.74
2024-03-10T06:25:40.399Z,60.96
2024-03-10T06:28:07.172Z,60.98
2024-03-10T06:30:35.939Z,60.90
2024-03-10T06:33:03.119Z,60.87
2024-03-10T06:35:30.117Z,60.85
2024-03-10T06:37:57.186Z,60.97
2024-03-10T06:40:24.111Z,60.47
2024-03-10T06:42:50.677Z,60.81
2024-03-10T06:45:17.996Z,60.60
2024-03-10T06:47:45.337Z,59.83
2024-03-10T06:50:12.386Z,59.31
2024-03-10T06:52:39.450Z,58.76
2024-03-10T06:55:07.853Z,58.31
2024-03-10T06:57:34.786Z,57.47
2024-03-10T07:00:01.688Z,56.83
2024-03-10T07:02:29.913Z,56.52
2024-03-10T07:04:57.781Z,54.82
2024-03-10T07:07:27.069Z,55.12
2024-03-10T07:09:54.683Z,54.14
2024-03-10T07:12:21.551Z,52.80
2024-03-10T07:14:49.247Z,51.48
2024-03-10T07:17:16.761Z,50.68
2024-03-10T07:19:43.624Z,50.56
2024-03-10T07:22:10.305Z,47.96
2024-03-10T07:24:39.868Z,44.93
2024-03-10T07:27:06.662Z,45.10
2024-03-10T07:29:34.034Z,45.15
2024-03-10T07:32:01.605Z,45.39
2024-03-10T07:34:29.500Z,45.23
2024-03-10T07:36:56.381Z,45.42
2024-03-10T07:39:47.808Z,43.11
2024-03-10T07:42:52.490Z,44.18
2024-03-10T07:45:24.969Z,41.94
2024-03-10T07:47:51.996Z,42.14
2024-03-10T07:50:19.471Z,41.96
2024-03-10T07:52:48.018Z,40.82
2024-03-10T07:55:17.028Z,37.97
2024-03-10T07:57:43.793Z,37.25
2024-03-10T08:00:22.630Z,38.46
2024-03-10T08:02:49.676Z,39.39
2024-03-10T08:05:16.901Z,39.22
2024-03-10T08:07:46.198Z,39.48
2024-03-10T08:10:15.232Z,37.89
2024-03-10T08:12:45.819Z,37.11
2024-03-10T08:15:13.280Z,36.87
2024-03-10T08:17:40.427Z,36.08
2024-03-10T08:20:09.188Z,34.24
2024-03-10T08:22:39.546Z,35.17
2024-03-10T08:25:06.944Z,34.18
2024-03-10T08:27:37.242Z,32.66
2024-03-10T08:30:04.978Z,33.14
2024-03-10T08:32:32.559Z,33.11
2024-03-10T08:34:59.608Z,32.13
2024-03-10T08:37:28.792Z,32.34
2024-03-10T08:39:55.593Z,32.56
2024-03-10T08:42:25.449Z,32.40
2024-03-10T08:44:52.385Z,29.58
2024-03-10T08:47:19.403Z,30.02
2024-03-10T08:49:47.018Z,29.60
2024-03-10T08:52:13.957Z,29.26
2024-03-10T08:54:40.886Z,29.40
2024-03-10T08:57:10.090Z,29.42
2024-03-10T08:59:36.989Z,28.83
2024-03-10T09:02:04.312Z,28.78
2024-03-10T09:04:31.355Z,28.19
2024-03-10T09:06:58.069Z,27.98
2024-03-10T09:09:25.114Z,27.67
2024-03-10T09:11:52.641Z,28.35
2024-03-10T09:14:19.711Z,27.44
2024-03-10T09:16:46.997Z,27.58
2024-03-10T09:19:15.055Z,28.57
2024-03-10T09:21:44.243Z,28.76
2024-03-10T09:24:15.407Z,28.09
2024-03-10T09:26:42.562Z,27.33
2024-03-10T09:29:10.434Z,27.23
2024-03-10T09:31:40.733Z,27.42
2024-03-10T09:34:07.686Z,27.88
2024-03-10T09:36:34.433Z,27.26
2024-03-10T09:39:01.485Z,27.29
2024-03-10T09:41:30.315Z,26.35
2024-03-10T09:43:58.054Z,25.81
2024-03-10T09:46:24.653Z,26.22
2024-03-10T09:48:51.416Z,26.18
2024-03-10T09:51:19.877Z,26.13
2024-03-10T09:53:47.486Z,25.62
2024-03-10T09:56:14.591Z,25.92
2024-03-10T09:58:51.487Z,26.31
2024-03-10T10:01:21.894Z,26.31
2024-03-10T10:03:50.606Z,26.13
2024-03-10T10:06:18.859Z,27.74
2024-03-10T10:08:46.672Z,27.79
2024-03-10T10:11:14.338Z,26.98
2024-03-10T10:13:43.270Z,26.52
2024-03-10T10:16:10.267Z,25.93
2024-03-10T10:18:41.793Z,25.49
2024-03-10T10:21:14.343Z,25.57
2024-03-10T10:23:41.324Z,27.47
2024-03-10T10:26:13.508Z,28.20
2024-03-10T10:28:42.770Z,26.89
2024-03-10T10:31:16.378Z,26.58
2024-03-10T10:33:46.655Z,25.56
2024-03-10T10:36:14.461Z,25.24
2024-03-10T10:38:45.900Z,24.76
2024-03-10T10:41:13.128Z,24.62
2024-03-10T10:43:40.516Z,24.34
2024-03-10T10:46:07.497Z,24.05
2024-03-10T10:48:37.073Z,24.40
2024-03-10T10:51:07.105Z,24.17
2024-03-10T10:53:34.442Z,23.87
2024-03-10T10:56:01.816Z,24.03
2024-03-10T10:58:31.911Z,23.22
2024-03-10T11:01:01.698Z,23.27
2024-03-10T11:03:33.492Z,22.09
2024-03-10T11:06:03.605Z,22.75
2024-03-10T11:08:31.679Z,22.48
2024-03-10T11:10:58.853Z,22.09
2024-03-10T11:13:28.840Z,21.97
2024-03-10T11:16:12.267Z,22.31
2024-03-10T11:18:39.954Z,23.49
2024-03-10T11:21:13.835Z,23.34
2024-03-10T11:23:43.164Z,22.24
2024-03-10T11:26:13.607Z,23.20
2024-03-10T11:28:53.023Z,23.35
2024-03-10T11:31:22.820Z,22.94
2024-03-10T11:33:59.721Z,22.91
2024-03-10T11:36:33.773Z,24.81
2024-03-10T11:39:02.538Z,24.58
2024-03-10T11:41:29.753Z,24.68
2024-03-10T11:43:58.455Z,24.97
2024-03-10T11:46:29.797Z,25.18
2024-03-10T11:48:57.046Z,25.18
2024-03-10T11:51:34.216Z,25.47
2024-03-10T11:54:04.746Z,25.20
2024-03-10T11:56:34.807Z,24.27
2024-03-10T11:59:04.322Z,23.92
2024-03-10T12:01:31.171Z,23.86
2024-03-10T12:04:06.472Z,22.96
2024-03-10T12:06:33.706Z,23.25
2024-03-10T12:09:10.578Z,23.48
2024-03-10T12:11:37.599Z,24.02
2024-03-10T12:14:09.022Z,23.49
2024-03-10T12:16:48.992Z,23.72
2024-03-10T12:19:16.282Z,24.13
2024-03-10T12:21:46.039Z,26.07
2024-03-10T12:24:13.052Z,27.51
2024-03-10T12:26:40.708Z,26.51
2024-03-10T12:29:07.887Z,25.46
2024-03-10T12:31:36.431Z,25.14
2024-03-10T12:34:03.633Z,24.84
2024-03-10T12:36:34.321Z,24.72
2024-03-10T12:39:01.209Z,24.69
2024-03-10T12:41:28.960Z,25.18
2024-03-10T12:43:57.675Z,26.09
2024-03-10T12:46:24.662Z,27.16
2024-03-10T12:48:53.446Z,26.69
2024-03-10T12:51:20.393Z,27.28
2024-03-10T12:53:47.383Z,27.95
2024-03-10T12:56:15.064Z,27.70
2024-03-10T12:58:42.226Z,28.14
2024-03-10T13:01:09.265Z,26.99
2024-03-10T13:03:36.745Z,26.74
2024-03-10T13:06:04.488Z,27.29
2024-03-10T13:08:31.605Z,27.92
2024-03-10T13:10:59.621Z,28.69
2024-03-10T13:13:27.413Z,29.10
2024-03-10T13:15:55.272Z,27.71
2024-03-10T13:18:22.599Z,26.83
2024-03-10T13:20:49.570Z,26.89
2024-03-10T13:23:16.425Z,27.06
2024-03-10T13:25:43.266Z,25.72
2024-03-10T13:28:10.512Z,25.61
2024-03-10T13:30:39.002Z,25.48
2024-03-10T13:33:06.609Z,26.34
2024-03-10T13:35:34.332Z,26.36
2024-03-10T13:38:03.750Z,26.84
2024-03-10T13:40:31.698Z,26.39
2024-03-10T13:42:58.877Z,26.11
2024-03-10T13:45:35.430Z,26.21
2024-03-10T13:48:08.746Z,26.81
2024-03-10T13:50:36.187Z,27.40
2024-03-10T13:53:05.593Z,27.41
2024-03-10T13:55:32.913Z,26.96
2024-03-10T13:57:59.797Z,27.96
2024-03-10T14:00:27.290Z,28.39
2024-03-10T14:02:54.696Z,28.16
2024-03-10T14:05:23.507Z,27.89
2024-03-10T14:07:50.521Z,28.80
2024-03-10T14:10:20.318Z,29.40
2024-03-10T14:12:48.289Z,28.49
2024-03-10T14:15:15.545Z,27.93
2024-03-10T14:17:44.945Z,27.84
2024-03-10T14:20:16.232Z,27.55
2024-03-10T14:22:50.508Z,27.65
2024-03-10T14:25:18.090Z,27.46
2024-03-10T14:27:48.718Z,26.82
2024-03-10T14:30:15.743Z,27.35
2024-03-10T14:32:43.415Z,27.54
2024-03-10T14:35:14.299Z,27.41
2024-03-10T14:37:41.398Z,27.89
2024-03-10T14:40:15.832Z,28.72
2024-03-10T14:42:43.165Z,29.33
2024-03-10T14:45:11.235Z,30.09
2024-03-10T14:47:40.018Z,31.07
2024-03-10T14:50:08.973Z,31.38
2024-03-10T14:52:35.868Z,31.38
2024-03-10T14:55:04.969Z,31.32
2024-03-10T14:57:32.209Z,31.68
2024-03-10T15:00:00.793Z,31.46
2024-03-10T15:02:28.047Z,31.06
2024-03-10T15:04:55.144Z,31.97
2024-03-10T15:07:23.497Z,32.40
2024-03-10T15:09:50.321Z,33.07
2024-03-10T15:12:17.202Z,32.64
2024-03-10T15:14:44.248Z,33.29
2024-03-10T15:17:13.454Z,33.92
2024-03-10T15:19:40.259Z,34.75
2024-03-10T15:22:07.701Z,35.52
2024-03-10T15:24:37.804Z,36.04
2024-03-10T15:27:07.433Z,36.56
2024-03-10T15:29:35.448Z,36.70
2024-03-10T15:32:03.333Z,36.65
2024-03-10T15:34:31.135Z,37.14
2024-03-10T15:37:00.131Z,37.41
2024-03-10T15:39:28.643Z,37.78
2024-03-10T15:41:56.482Z,37.37
2024-03-10T15:44:26.442Z,37.51
2024-03-10T15:46:54.729Z,37.80
2024-03-10T15:49:21.609Z,38.00
2024-03-10T15:51:48.476Z,39.70
2024-03-10T15:54:15.294Z,39.57
2024-03-10T15:56:42.159Z,40.46
2024-03-10T15:59:09.456Z,41.08
2024-03-10T16:01:36.866Z,41.13
2024-03-10T16:04:06.166Z,42.08
2024-03-10T16:06:33.115Z,42.16
2024-03-10T16:09:00.995Z,42.76
2024-03-10T16:11:28.188Z,42.52
2024-03-10T16:14:00.593Z,42.72
2024-03-10T16:16:30.392Z,42.96
2024-03-10T16:19:00.219Z,43.03
2024-03-10T16:21:31.045Z,42.98
2024-03-10T16:23:57.839Z,43.31
2024-03-10T16:26:24.706Z,43.79
2024-03-10T16:28:51.684Z,44.15
2024-03-10T16:31:18.539Z,44.07
2024-03-10T16:33:46.382Z,44.45
2024-03-10T16:36:13.363Z,44.38
2024-03-10T16:38:43.979Z,44.44
2024-03-10T16:41:11.236Z,44.92
2024-03-10T16:43:39.211Z,44.93
2024-03-10T16:46:06.848Z,45.40
2024-03-10T16:48:33.970Z,45.83
2024-03-10T16:51:00.941Z,46.06
2024-03-10T16:53:27.801Z,46.42
2024-03-10T16:55:55.715Z,46.57
2024-03-10T16:58:23.509Z,46.85
2024-03-10T17:00:52.554Z,47.18
2024-03-10T17:03:19.486Z,47.28
2024-03-10T17:05:46.844Z,47.18
2024-03-10T17:08:14.887Z,47.30
2024-03-10T17:10:43.241Z,47.65
2024-03-10T17:13:11.735Z,47.72
2024-03-10T17:15:39.188Z,48.15
2024-03-10T17:18:07.273Z,48.39
2024-03-10T17:20:35.573Z,48.43
2024-03-10T17:23:03.891Z,48.57
2024-03-10T17:25:30.858Z,48.42
2024-03-10T17:27:58.749Z,48.86
2024-03-10T17:30:25.979Z,48.92
2024-03-10T17:32:55.112Z,49.15
2024-03-10T17:35:24.333Z,49.04
2024-03-10T17:37:51.216Z,49.45
2024-03-10T17:40:21.647Z,49.61
2024-03-10T17:42:49.307Z,49.53
2024-03-10T17:45:16.242Z,49.83
2024-03-10T17:47:43.572Z,49.85
2024-03-10T17:50:11.033Z,50.06
2024-03-10T17:52:39.263Z,50.00
2024-03-10T17:55:09.471Z,49.78
2024-03-10T17:57:36.862Z,50.12
2024-03-10T18:00:05.631Z,50.01
2024-03-10T18:02:33.472Z,50.08
2024-03-10T18:05:01.173Z,50.40
2024-03-10T18:07:28.187Z,50.10
2024-03-10T18:09:55.032Z,50.23
2024-03-10T18:12:24.812Z,50.17
2024-03-10T18:14:53.716Z,50.10
2024-03-10T18:17:20.585Z,50.62
2024-03-10T18:19:47.423Z,50.76
2024-03-10T18:22:16.844Z,50.97
2024-03-10T18:24:44.872Z,51.23
2024-03-10T18:27:12.542Z,51.14
2024-03-10T18:29:42.033Z,51.61
2024-03-10T18:32:09.046Z,51.67
2024-03-10T18:34:36.130Z,52.01
2024-03-10T18:37:04.518Z,51.79
2024-03-10T18:39:33.314Z,51.97
2024-03-10T18:42:00.766Z,52.06
2024-03-10T18:44:28.083Z,51.93
2024-03-10T18:46:55.532Z,52.18
2024-03-10T18:49:24.874Z,52.38
2024-03-10T18:51:51.845Z,52.10
2024-03-10T18:54:18.876Z,52.24
2024-03-10T18:56:46.079Z,52.46
2024-03-10T18:59:13.075Z,52.52
2024-03-10T19:01:42.052Z,52.04
2024-03-10T19:04:12.406Z,52.34
2024-03-10T19:06:39.426Z,52.34
2024-03-10T19:09:09.893Z,52.38
2024-03-10T19:11:37.490Z,52.29
2024-03-10T19:14:04.894Z,51.92
2024-03-10T19:16:31.846Z,51.68
2024-03-10T19:18:58.754Z,51.67
2024-03-10T19:21:26.032Z,51.47
2024-03-10T19:23:53.189Z,51.28
2024-03-10T19:26:20.035Z,50.93
2024-03-10T19:28:47.768Z,50.55
2024-03-10T19:31:14.726Z,50.41
2024-03-10T19:33:42.165Z,49.86
2024-03-10T19:36:11.676Z,49.47
2024-03-10T19:38:38.593Z,49.66
2024-03-10T19:41:05.608Z,49.61
2024-03-10T19:43:32.610Z,49.55
2024-03-10T19:45:59.708Z,49.75
2024-03-10T19:48:26.597Z,49.98
2024-03-10T19:50:54.326Z,49.91
2024-03-10T19:53:22.371Z,49.96
2024-03-10T19:55:51.229Z,50.23
2024-03-10T19:58:17.960Z,50.20
2024-03-10T20:00:45.027Z,50.41
2024-03-10T20:03:12.182Z,50.67
2024-03-10T20:05:39.194Z,50.89
2024-03-10T20:08:08.480Z,51.05
2024-03-10T20:10:35.353Z,51.24
2024-03-10T20:13:04.862Z,51.27
2024-03-10T20:15:32.005Z,51.21
2024-03-10T20:17:59.628Z,51.55
2024-03-10T20:20:27.257Z,51.56
2024-03-10T20:22:58.942Z,51.48
2024-03-10T20:25:26.676Z,51.39
2024-03-10T20:27:56.473Z,51.83
2024-03-10T20:30:23.291Z,51.82
2024-03-10T20:32:50.221Z,52.13
2024-03-10T20:35:18.230Z,52.34
2024-03-10T20:37:45.286Z,52.77
2024-03-10T20:40:13.743Z,52.90
2024-03-10T20:42:41.404Z,53.23
2024-03-10T20:45:12.240Z,53.63
2024-03-10T20:47:41.041Z,53.62
2024-03-10T20:50:08.789Z,53.73
2024-03-10T20:52:35.866Z,54.07
2024-03-10T20:55:03.291Z,54.21
2024-03-10T20:57:30.363Z,54.58
2024-03-10T20:59:57.584Z,54.55
2024-03-10T21:02:24.803Z,54.61
2024-03-10T21:04:51.993Z,54.75
2024-03-10T21:07:20.365Z,54.70
2024-03-10T21:09:47.950Z,54.66
2024-03-10T21:12:14.898Z,54.93
2024-03-10T21:14:42.075Z,54.99
2024-03-10T21:17:09.251Z,55.01
2024-03-10T21:19:36.182Z,55.10
2024-03-10T21:22:07.462Z,55.02
2024-03-10T21:24:34.415Z,55.00
2024-03-10T21:27:01.159Z,55.12
2024-03-10T21:29:28.838Z,55.10
2024-03-10T21:31:55.754Z,55.08
2024-03-10T21:34:23.752Z,55.19
2024-03-10T21:36:51.075Z,55.20
2024-03-10T21:39:20.388Z,55.31
2024-03-10T21:41:47.513Z,55.15
2024-03-10T21:44:14.491Z,55.37
2024-03-10T21:46:41.339Z,55.43
2024-03-10T21:49:09.287Z,55.41
2024-03-10T21:51:36.070Z,55.24
2024-03-10T21:54:03.590Z,55.40
2024-03-10T21:56:33.058Z,55.24
2024-03-10T21:59:01.006Z,55.17
2024-03-10T22:01:27.920Z,55.13
2024-03-10T22:03:56.586Z,54.92
2024-03-10T22:06:23.427Z,54.97
2024-03-10T22:17:29.501Z,54.59
2024-03-10T22:19:56.284Z,54.35
2024-03-10T22:22:23.440Z,54.22
2024-03-10T22:24:50.477Z,54.11
2024-03-10T22:27:17.146Z,53.92
2024-03-10T22:29:46.435Z,54.02
2024-03-10T22:32:13.225Z,53.87
2024-03-10T22:34:39.899Z,53.62
2024-03-10T22:37:06.734Z,53.37
2024-03-10T22:39:33.414Z,52.98
2024-03-10T22:42:00.623Z,52.87
2024-03-10T22:44:27.958Z,52.45
2024-03-10T22:46:55.949Z,52.34
2024-03-10T22:49:22.687Z,51.92
2024-03-10T22:51:49.339Z,52.00
2024-03-10T22:54:16.062Z,51.69
2024-03-10T22:56:43.112Z,51.43
2024-03-10T22:59:09.858Z,51.36
2024-03-10T23:01:36.537Z,51.37
2024-03-10T23:04:04.474Z,51.18
2024-03-10T23:06:31.412Z,51.26
2024-03-10T23:08:59.105Z,51.23
2024-03-10T23:11:25.776Z,50.91
2024-03-10T23:13:52.794Z,51.19
2024-03-10T23:16:20.414Z,51.35
2024-03-10T23:18:47.047Z,51.23
2024-03-10T23:21:13.907Z,51.26
2024-03-10T23:23:40.727Z,51.30
2024-03-10T23:26:09.841Z,51.48
2024-03-10T23:28:36.880Z,51.38
2024-03-10T23:31:04.945Z,51.60
2024-03-10T23:33:31.638Z,51.73
2024-03-10T23:35:59.758Z,51.59
2024-03-10T23:38:26.368Z,51.52
2024-03-10T23:40:53.850Z,51.47
2024-03-10T23:43:21.923Z,51.38
2024-03-10T23:45:48.782Z,51.47
2024-03-10T23:48:16.205Z,51.38
2024-03-10T23:50:42.975Z,51.15
2024-03-10T23:53:09.683Z,51.16
2024-03-10T23:55:39.671Z,51.22
2024-03-10T23:58:07.827Z,51.16
